Time;durP1;ratioP1;P1;durP2;ratioP2;P2;SDS_P1;SDS_P2;PMS_P1;PMS_P2;Temp;Humidity;BMP_temperature;BMP_pressure;BME280_temperature;BME280_humidity;BME280_pressure;Samples;Min_cycle;Max_cycle;Signal;HPM_P1;HPM_P2
2021/01/01 00:00:39;;;;;;;27.05;19.35;;;154.40;2227.20;;;;;;4978299;28;20026;-81
2021/01/01 00:03:05;;;;;;;32.08;20.48;;;154.30;2227.20;;;;;;4980616;28;20109;-78
2021/01/01 00:05:32;;;;;;;29.98;20.08;;;154.30;2252.80;;;;;;4991223;28;20073;-80
2021/01/01 00:07:57;;;;;;;32.45;20.05;;;154.30;2252.80;;;;;;4993770;28;20050;-80
2021/01/01 00:10:23;;;;;;;32.58;21.52;;;154.30;2252.80;;;;;;4995304;28;20018;-80
2021/01/01 00:12:49;;;;;;;35.13;24.38;;;154.20;2227.20;;;;;;4995714;28;20081;-81
2021/01/01 00:15:15;;;;;;;31.55;21.20;;;154.20;2252.80;;;;;;4979595;28;20121;-81
2021/01/01 00:17:41;;;;;;;30.25;21.05;;;154.20;2227.20;;;;;;4995416;28;20022;-80
2021/01/01 00:20:10;;;;;;;26.63;20.23;;;154.00;2252.80;;;;;;4994928;28;20033;-79
2021/01/01 00:22:37;;;;;;;28.70;19.20;;;154.00;2252.80;;;;;;4971488;28;20080;-82
2021/01/01 00:25:06;;;;;;;31.83;21.10;;;154.00;2252.80;;;;;;4996037;28;20034;-80
2021/01/01 00:27:32;;;;;;;29.80;19.40;;;154.00;2252.80;;;;;;5016129;28;20412;-76
2021/01/01 00:29:59;;;;;;;26.52;18.90;;;153.90;2227.20;;;;;;5015693;28;20408;-79
2021/01/01 00:32:24;;;;;;;28.23;19.98;;;153.80;2252.80;;;;;;5015392;28;20030;-77
2021/01/01 08:11:07;;;;;;;39.38;24.85;;;128.80;2252.80;;;;;;4760494;22;20045;-79
2021/01/01 08:13:35;;;;;;;44.78;28.05;;;128.90;2252.80;;;;;;5051384;28;20060;-77
2021/01/01 08:16:21;;;;;;;45.33;30.05;;;153.60;2252.80;;;;;;5056071;28;20317;-77
2021/01/01 08:18:46;;;;;;;52.70;30.38;;;153.70;2252.80;;;;;;5055770;28;20484;-78
2021/01/01 08:21:12;;;;;;;51.53;29.88;;;153.80;2252.80;;;;;;5056170;28;20107;-74
2021/01/01 08:23:54;;;;;;;39.88;26.45;;;153.80;2252.80;;;;;;5056318;28;20039;-74
2021/01/01 08:26:21;;;;;;;35.50;24.42;;;153.90;2252.80;;;;;;5055944;28;20033;-73
2021/01/01 08:28:49;;;;;;;39.13;25.98;;;154.00;2252.80;;;;;;5055409;28;20032;-75
2021/01/01 08:31:20;;;;;;;46.00;30.92;;;154.00;2252.80;;;;;;5036978;28;20105;-76
2021/01/01 08:33:51;;;;;;;41.63;25.83;;;154.00;2252.80;;;;;;5036318;28;20037;-76
2021/01/01 08:36:16;;;;;;;35.88;26.02;;;154.10;2252.80;;;;;;5036033;28;20072;-79
2021/01/01 08:38:43;;;;;;;39.92;26.20;;;154.20;2252.80;;;;;;5033327;28;20061;-77
2021/01/01 08:41:16;;;;;;;47.35;26.88;;;154.20;2252.80;;;;;;5035993;28;20026;-75
2021/01/01 08:43:41;;;;;;;62.03;36.42;;;154.20;2252.80;;;;;;5018027;28;20116;-75
2021/01/01 08:46:17;;;;;;;91.80;48.65;;;154.40;2252.80;;;;;;5036101;28;20387;-71
2021/01/01 08:48:44;;;;;;;58.25;33.25;;;154.50;2252.80;;;;;;5035717;28;20414;-75
2021/01/01 08:51:10;;;;;;;60.03;34.80;;;179.20;2252.80;;;;;;5035257;28;20086;-75
2021/01/01 08:53:40;;;;;;;87.30;46.88;;;179.30;2252.80;;;;;;5035397;28;20251;-75
2021/01/01 08:56:06;;;;;;;50.03;31.17;;;179.40;2252.80;;;;;;5035780;28;20419;-76
2021/01/01 08:58:32;;;;;;;48.33;30.52;;;179.30;2227.20;;;;;;5035764;28;20068;-75
2021/01/01 09:01:17;;;;;;;55.65;34.60;;;179.40;2252.80;;;;;;5035709;28;20317;-74
2021/01/01 09:03:43;;;;;;;64.00;40.13;;;179.50;2252.80;;;;;;5035920;28;20084;-75
2021/01/01 09:06:19;;;;;;;55.80;35.83;;;179.50;2227.20;;;;;;5034761;28;20022;-78
2021/01/01 09:08:45;;;;;;;63.63;39.22;;;179.60;2227.20;;;;;;5018079;28;20467;-76
2021/01/01 09:11:24;;;;;;;52.25;34.40;;;179.60;2227.20;;;;;;5035611;28;20029;-74
2021/01/01 09:13:59;;;;;;;60.75;35.65;;;179.70;2227.20;;;;;;5035641;28;20069;-75
2021/01/01 09:16:25;;;;;;;45.80;28.40;;;179.80;2227.20;;;;;;5035994;28;20030;-78
2021/01/01 09:18:51;;;;;;;41.28;27.13;;;179.80;2201.60;;;;;;5034371;28;20091;-78
2021/01/01 09:21:18;;;;;;;35.97;24.02;;;179.80;2201.60;;;;;;5034628;28;20064;-74
2021/01/01 09:23:54;;;;;;;39.92;26.73;;;179.90;2201.60;;;;;;5035460;28;20048;-74
2021/01/01 09:26:28;;;;;;;41.38;26.58;;;179.90;2201.60;;;;;;5019119;28;20068;-74
2021/01/01 09:29:04;;;;;;;54.28;33.83;;;180.10;2176.00;;;;;;5021872;28;20025;-74
2021/01/01 09:31:33;;;;;;;59.70;33.88;;;204.80;2201.60;;;;;;5039126;28;20104;-74
2021/01/01 09:34:00;;;;;;;51.28;30.17;;;204.80;2201.60;;;;;;5039015;28;20031;-76
2021/01/01 09:36:26;;;;;;;35.22;26.05;;;204.80;2201.60;;;;;;5038578;28;20022;-75
2021/01/01 09:38:52;;;;;;;37.58;25.33;;;204.90;2176.00;;;;;;5039248;28;20076;-78
2021/01/01 09:41:18;;;;;;;34.25;24.88;;;204.90;2176.00;;;;;;5039077;28;20441;-78
2021/01/01 09:43:44;;;;;;;33.15;22.23;;;204.90;2201.60;;;;;;5038525;28;20337;-78
2021/01/01 09:46:10;;;;;;;37.40;25.10;;;204.90;2176.00;;;;;;5039283;28;20053;-78
2021/01/01 09:48:36;;;;;;;36.55;22.85;;;204.90;2176.00;;;;;;5038782;28;20072;-78
2021/01/01 09:51:01;;;;;;;35.40;24.38;;;205.00;2176.00;;;;;;5038798;28;20288;-78
2021/01/01 09:53:27;;;;;;;38.85;24.00;;;205.00;2176.00;;;;;;5039068;28;20071;-78
2021/01/01 09:55:53;;;;;;;34.60;22.80;;;205.10;2176.00;;;;;;5038624;28;20094;-78
2021/01/01 09:58:18;;;;;;;33.08;22.40;;;205.10;2176.00;;;;;;5038787;28;20032;-78
2021/01/01 10:00:47;;;;;;;39.20;26.35;;;205.20;2176.00;;;;;;5038828;28;20362;-78
2021/01/01 10:03:13;;;;;;;38.35;25.13;;;205.30;2176.00;;;;;;5038896;28;20029;-77
2021/01/01 10:05:39;;;;;;;41.70;26.15;;;205.40;2150.40;;;;;;5037532;28;20306;-78
2021/01/01 10:08:05;;;;;;;40.33;26.38;;;205.50;2150.40;;;;;;5038585;28;20104;-78
2021/01/01 10:10:32;;;;;;;34.90;24.92;;;205.60;2150.40;;;;;;5038603;28;20056;-77
2021/01/01 10:12:59;;;;;;;36.45;23.92;;;205.70;2150.40;;;;;;5038377;28;20064;-79
2021/01/01 10:15:25;;;;;;;40.03;25.80;;;230.40;2150.40;;;;;;5038505;28;20029;-78
2021/01/01 10:17:51;;;;;;;37.03;25.40;;;230.40;2150.40;;;;;;5020982;28;20033;-78
2021/01/01 10:20:17;;;;;;;34.95;24.17;;;230.50;2150.40;;;;;;5038308;28;20105;-78
2021/01/01 10:22:42;;;;;;;39.78;26.65;;;230.50;2124.80;;;;;;5020848;28;20029;-78
2021/01/01 10:25:09;;;;;;;40.55;25.25;;;230.60;2150.40;;;;;;5038132;28;20021;-78
2021/01/01 10:27:34;;;;;;;40.55;24.77;;;230.60;2124.80;;;;;;5020515;28;20295;-76
2021/01/01 10:30:00;;;;;;;43.08;25.63;;;230.70;2150.40;;;;;;5038171;28;20029;-77
2021/01/01 10:32:26;;;;;;;32.58;22.13;;;230.70;2150.40;;;;;;5038301;28;20025;-79
2021/01/01 10:34:52;;;;;;;37.78;23.17;;;230.70;2150.40;;;;;;5037985;28;20029;-77
2021/01/01 10:37:17;;;;;;;33.85;22.05;;;230.80;2150.40;;;;;;5037955;28;20029;-79
2021/01/01 10:39:43;;;;;;;36.03;22.13;;;230.70;2150.40;;;;;;5038145;28;20092;-78
2021/01/01 10:42:09;;;;;;;36.63;23.30;;;230.80;2150.40;;;;;;5037883;28;20414;-79
2021/01/01 10:44:36;;;;;;;28.90;19.55;;;230.80;2150.40;;;;;;5037799;28;20132;-80
2021/01/01 10:47:02;;;;;;;24.88;17.23;;;230.80;2150.40;;;;;;5038069;28;20021;-79
2021/01/01 10:49:28;;;;;;;27.52;17.85;;;230.90;2150.40;;;;;;5037839;28;20040;-79
2021/01/01 10:51:58;;;;;;;29.02;18.15;;;230.90;2124.80;;;;;;5037630;28;20029;-79
2021/01/01 10:54:25;;;;;;;29.03;19.93;;;231.00;2124.80;;;;;;5020216;28;20322;-79
2021/01/01 10:56:50;;;;;;;26.58;19.50;;;231.10;2124.80;;;;;;5037516;28;20792;-78
2021/01/01 10:59:16;;;;;;;32.65;19.33;;;231.10;2150.40;;;;;;5037243;28;20034;-79
2021/01/01 11:01:42;;;;;;;30.50;19.35;;;231.10;2150.40;;;;;;5037598;28;20029;-79
2021/01/01 11:04:07;;;;;;;25.23;18.80;;;231.20;2150.40;;;;;;5037307;28;20033;-79
2021/01/01 11:06:39;;;;;;;27.90;17.77;;;231.20;2150.40;;;;;;5037600;28;20036;-79
2021/01/01 11:09:06;;;;;;;29.70;18.23;;;231.30;2150.40;;;;;;5037608;28;20096;-79
2021/01/01 11:11:31;;;;;;;24.23;18.15;;;256.00;2150.40;;;;;;5036970;28;20029;-78
2021/01/01 11:14:14;;;;;;;28.48;17.83;;;256.10;2150.40;;;;;;5037596;28;20029;-78
2021/01/01 12:25:44;;;;;;;10.70;9.60;;;282.00;1894.40;;;;;;4937309;29;20028;-78
2021/01/01 12:28:11;;;;;;;11.73;8.65;;;282.00;1894.40;;;;;;4937197;29;20020;-79
2021/01/01 12:30:38;;;;;;;10.07;7.55;;;282.10;1894.40;;;;;;4937140;29;20692;-78
2021/01/01 12:33:04;;;;;;;11.20;8.20;;;282.20;1868.80;;;;;;4937091;29;20044;-78
2021/01/01 12:35:30;;;;;;;11.43;9.55;;;282.10;1894.40;;;;;;4937156;29;20306;-78
2021/01/01 12:38:01;;;;;;;24.40;16.90;;;282.20;1868.80;;;;;;4937344;29;20471;-79
2021/01/01 12:40:27;;;;;;;;;;;282.20;1843.20;;;;;;4937573;29;20047;-78
2021/01/01 12:42:52;;;;;;;23.50;15.98;;;282.10;1868.80;;;;;;4949213;28;19942;-78
2021/01/01 12:45:18;;;;;;;19.80;14.50;;;282.10;1868.80;;;;;;4956193;29;20114;-78
2021/01/01 12:47:44;;;;;;;14.38;10.65;;;282.10;1868.80;;;;;;4956176;29;20027;-78
2021/01/01 12:50:10;;;;;;;11.57;8.98;;;282.10;1868.80;;;;;;4940154;29;20031;-78
2021/01/01 12:52:36;;;;;;;11.25;8.60;;;282.20;1868.80;;;;;;4956275;29;20066;-78
2021/01/01 12:55:01;;;;;;;13.27;8.95;;;282.20;1868.80;;;;;;4956172;29;20054;-79
2021/01/01 12:57:27;;;;;;;14.18;9.13;;;282.30;1868.80;;;;;;4957300;28;20325;-81
2021/01/01 12:59:53;;;;;;;12.63;9.15;;;282.20;1868.80;;;;;;5028948;28;20076;-78
2021/01/01 13:02:18;;;;;;;10.80;7.18;;;282.20;1868.80;;;;;;5039313;28;20036;-77
2021/01/01 13:04:44;;;;;;;10.65;6.68;;;282.10;1843.20;;;;;;5039631;28;20022;-78
2021/01/01 13:07:10;;;;;;;8.77;6.13;;;282.20;1868.80;;;;;;5039842;28;20358;-78
2021/01/01 13:09:36;;;;;;;8.90;6.47;;;282.10;1843.20;;;;;;5039759;28;20366;-77
2021/01/01 13:12:02;;;;;;;6.45;4.93;;;282.10;1843.20;;;;;;5039364;28;20092;-77
2021/01/01 13:14:27;;;;;;;7.35;5.20;;;282.10;1843.20;;;;;;5039602;28;20311;-78
2021/01/01 13:16:55;;;;;;;8.90;5.95;;;282.10;1843.20;;;;;;5039395;28;20030;-78
2021/01/01 13:19:21;;;;;;;7.63;5.03;;;282.30;1843.20;;;;;;5039449;28;20112;-78
2021/01/01 13:21:47;;;;;;;9.68;6.05;;;282.50;1843.20;;;;;;5021158;28;20136;-78
2021/01/01 13:24:12;;;;;;;9.82;6.22;;;307.20;1868.80;;;;;;5021984;28;20320;-78
2021/01/01 13:26:38;;;;;;;6.18;4.95;;;307.40;1843.20;;;;;;5021638;28;20030;-78
2021/01/01 13:29:04;;;;;;;6.55;4.55;;;307.60;1792.00;;;;;;5021264;28;20038;-78
2021/01/01 13:31:37;;;;;;;7.53;4.68;;;307.80;1792.00;;;;;;5039119;28;20040;-77
2021/01/01 13:34:05;;;;;;;8.70;6.03;;;308.00;1792.00;;;;;;5039354;28;20022;-78
2021/01/01 13:36:31;;;;;;;12.10;7.40;;;332.80;1792.00;;;;;;5039086;28;20030;-79
2021/01/01 13:38:57;;;;;;;15.85;9.25;;;332.80;1715.20;;;;;;5021605;28;20045;-77
2021/01/01 13:41:22;;;;;;;28.67;12.38;;;332.90;1740.80;;;;;;5038834;28;20133;-80
2021/01/01 13:43:48;;;;;;;9.90;5.95;;;332.90;1766.40;;;;;;5038884;28;20072;-77
2021/01/01 13:46:32;;;;;;;9.38;5.53;;;332.80;1715.20;;;;;;5038847;28;20048;-77
2021/01/01 13:48:59;;;;;;;6.50;4.13;;;308.00;1664.00;;;;;;5038843;28;20021;-77
2021/01/01 13:51:29;;;;;;;5.50;3.90;;;308.00;1715.20;;;;;;5039041;28;20053;-77
2021/01/01 13:53:55;;;;;;;5.30;4.38;;;308.00;1689.60;;;;;;5021349;28;20318;-78
2021/01/01 13:56:21;;;;;;;5.32;4.47;;;307.90;1689.60;;;;;;5038482;28;20033;-77
2021/01/01 13:58:47;;;;;;;7.18;5.43;;;307.80;1689.60;;;;;;5020156;28;20338;-77
2021/01/01 14:01:18;;;;;;;8.25;6.50;;;307.70;1715.20;;;;;;5038674;28;20025;-77
2021/01/01 14:03:44;;;;;;;9.60;6.53;;;307.50;1740.80;;;;;;5038297;28;20021;-77
2021/01/01 14:06:10;;;;;;;13.38;8.40;;;307.40;1740.80;;;;;;5038245;28;20021;-79
2021/01/01 14:08:36;;;;;;;9.88;7.97;;;307.30;1792.00;;;;;;5038513;28;20411;-77
2021/01/01 14:11:02;;;;;;;7.97;6.60;;;307.30;1766.40;;;;;;5039189;28;20030;-78
2021/01/01 14:13:30;;;;;;;7.22;6.00;;;307.20;1766.40;;;;;;5021783;28;20124;-77
2021/01/01 14:15:57;;;;;;;10.18;7.63;;;282.50;1766.40;;;;;;5042062;28;20029;-78
2021/01/01 14:18:23;;;;;;;9.85;6.75;;;282.40;1740.80;;;;;;5021851;28;20028;-78
2021/01/01 14:20:49;;;;;;;11.32;8.23;;;282.30;1766.40;;;;;;5038965;28;20033;-76
2021/01/01 14:23:15;;;;;;;12.10;8.52;;;282.30;1766.40;;;;;;5039985;28;20026;-77
2021/01/01 14:25:41;;;;;;;11.52;7.05;;;282.30;1766.40;;;;;;5038940;28;20321;-77
2021/01/01 14:28:08;;;;;;;15.80;7.72;;;282.20;1792.00;;;;;;5020570;28;20045;-77
2021/01/01 14:30:40;;;;;;;15.18;10.63;;;282.10;1792.00;;;;;;5038095;28;20315;-78
2021/01/01 14:33:07;;;;;;;18.42;10.00;;;282.00;1792.00;;;;;;5038206;28;20415;-78
2021/01/01 14:35:35;;;;;;;14.32;8.48;;;282.00;1792.00;;;;;;5038210;28;20026;-78
2021/01/01 14:38:01;;;;;;;14.85;9.80;;;281.90;1792.00;;;;;;5038255;28;20022;-77
2021/01/01 14:40:26;;;;;;;21.98;11.23;;;281.90;1792.00;;;;;;5038063;28;20026;-77
2021/01/01 14:42:52;;;;;;;29.02;14.60;;;281.80;1792.00;;;;;;5037282;28;20033;-78
2021/01/01 14:45:18;;;;;;;33.97;20.25;;;281.80;1792.00;;;;;;5037976;28;20024;-78
2021/01/01 14:47:46;;;;;;;30.38;16.95;;;281.70;1792.00;;;;;;5038070;28;20144;-78
2021/01/01 14:50:13;;;;;;;32.28;19.67;;;281.60;1792.00;;;;;;5037819;28;20025;-78
2021/01/01 14:52:39;;;;;;;30.20;18.25;;;281.60;1792.00;;;;;;5037813;28;20044;-78
2021/01/01 14:55:07;;;;;;;36.10;19.88;;;256.90;1792.00;;;;;;5037735;28;20030;-78
2021/01/01 14:57:32;;;;;;;33.30;20.27;;;256.80;1792.00;;;;;;5037589;28;20426;-78
2021/01/01 14:59:58;;;;;;;43.10;23.67;;;256.60;1792.00;;;;;;5037687;28;20060;-77
2021/01/01 15:02:24;;;;;;;55.33;31.85;;;256.60;1817.60;;;;;;5037635;28;20033;-78
2021/01/01 15:04:49;;;;;;;81.47;47.40;;;256.40;1817.60;;;;;;5037503;28;20096;-78
2021/01/01 15:07:15;;;;;;;49.75;30.35;;;256.40;1817.60;;;;;;5037669;28;20068;-78
2021/01/01 15:09:41;;;;;;;37.70;24.23;;;256.30;1817.60;;;;;;5037277;28;20458;-77
2021/01/01 15:12:07;;;;;;;35.75;20.25;;;256.30;1843.20;;;;;;5037018;28;20076;-78
2021/01/01 15:14:33;;;;;;;36.53;20.83;;;256.10;1843.20;;;;;;5037546;28;20029;-78
2021/01/01 15:16:58;;;;;;;37.45;24.25;;;256.10;1843.20;;;;;;5037199;28;20039;-77
2021/01/01 15:19:24;;;;;;;30.38;19.92;;;256.10;1843.20;;;;;;5020091;28;20030;-78
2021/01/01 15:21:50;;;;;;;24.98;17.00;;;256.00;1843.20;;;;;;5019442;28;20038;-79
2021/01/01 15:24:17;;;;;;;18.65;13.88;;;231.30;1843.20;;;;;;5036255;28;20031;-79
2021/01/01 15:26:44;;;;;;;21.23;14.18;;;231.30;1868.80;;;;;;5037168;28;20052;-78
2021/01/01 15:29:10;;;;;;;20.90;13.88;;;231.30;1868.80;;;;;;5037182;28;20025;-79
2021/01/01 15:31:36;;;;;;;21.98;14.88;;;231.20;1868.80;;;;;;5037147;28;20026;-79
2021/01/01 15:34:03;;;;;;;23.13;14.82;;;231.20;1868.80;;;;;;5019549;28;20080;-78
2021/01/01 15:36:29;;;;;;;22.13;14.90;;;231.10;1894.40;;;;;;5037280;28;20033;-79
2021/01/01 15:38:55;;;;;;;22.95;16.55;;;231.20;1868.80;;;;;;5037197;28;20025;-79
2021/01/01 15:41:21;;;;;;;25.00;15.20;;;231.10;1868.80;;;;;;5036594;28;20025;-79
2021/01/01 15:43:46;;;;;;;24.83;17.80;;;231.10;1868.80;;;;;;5036722;28;20065;-78
2021/01/01 15:46:17;;;;;;;27.60;18.08;;;231.10;1868.80;;;;;;5037090;28;20318;-77
2021/01/01 15:48:44;;;;;;;32.20;18.95;;;231.10;1868.80;;;;;;5037002;28;20096;-78
2021/01/01 15:51:16;;;;;;;27.00;17.50;;;231.00;1868.80;;;;;;5019214;28;20034;-76
2021/01/01 15:53:43;;;;;;;26.20;16.73;;;231.00;1868.80;;;;;;5036653;28;20025;-77
2021/01/01 15:56:08;;;;;;;25.25;15.77;;;231.00;1894.40;;;;;;5036684;28;20025;-77
2021/01/01 15:58:34;;;;;;;23.48;16.52;;;231.00;1894.40;;;;;;5036856;28;20036;-77
2021/01/01 16:01:00;;;;;;;28.55;17.98;;;230.90;1894.40;;;;;;5036672;28;20430;-77
2021/01/01 16:03:26;;;;;;;29.63;19.65;;;230.90;1894.40;;;;;;5036374;28;20520;-78
2021/01/01 16:05:52;;;;;;;32.05;21.40;;;230.90;1894.40;;;;;;5036691;28;20030;-78
2021/01/01 16:08:18;;;;;;;35.10;21.70;;;230.90;1894.40;;;;;;5036441;28;20305;-79
2021/01/01 16:10:44;;;;;;;37.80;23.80;;;230.90;1920.00;;;;;;5036096;28;20068;-79
2021/01/01 16:13:09;;;;;;;35.83;22.60;;;230.90;1920.00;;;;;;5036079;28;20053;-79
2021/01/01 16:15:35;;;;;;;38.58;24.38;;;230.80;1945.60;;;;;;5036615;28;20033;-76
2021/01/01 16:18:01;;;;;;;36.13;24.65;;;230.90;1945.60;;;;;;5036137;28;20292;-77
2021/01/01 16:20:27;;;;;;;39.97;25.90;;;230.90;1945.60;;;;;;5036407;28;20060;-77
2021/01/01 16:22:53;;;;;;;35.15;24.73;;;230.90;1945.60;;;;;;5036334;28;20064;-76
2021/01/01 16:25:18;;;;;;;41.03;27.17;;;230.90;1971.20;;;;;;5018409;28;20032;-77
2021/01/01 16:27:47;;;;;;;48.85;27.80;;;230.90;1945.60;;;;;;5038220;28;20017;-75
2021/01/01 16:30:15;;;;;;;120.28;53.08;;;230.90;1971.20;;;;;;5033379;28;20108;-74
2021/01/01 16:32:41;;;;;;;119.72;52.20;;;230.90;1971.20;;;;;;5036080;28;20025;-75
2021/01/01 16:35:08;;;;;;;82.03;40.20;;;230.90;1971.20;;;;;;5037420;28;20338;-73
2021/01/01 16:37:36;;;;;;;72.97;38.22;;;230.90;1971.20;;;;;;5040227;28;20026;-76
2021/01/01 16:40:12;;;;;;;57.13;32.72;;;230.90;1971.20;;;;;;5040172;28;20029;-75
2021/01/01 16:42:38;;;;;;;54.22;30.88;;;230.90;1945.60;;;;;;5038875;28;20034;-73
2021/01/01 16:45:10;;;;;;;57.45;31.27;;;230.90;1971.20;;;;;;5039948;28;20021;-75
2021/01/01 16:47:42;;;;;;;50.88;28.60;;;230.80;1971.20;;;;;;5053438;28;20021;-75
2021/01/01 16:50:10;;;;;;;45.58;30.45;;;230.80;1971.20;;;;;;5059826;28;20028;-75
2021/01/01 16:52:37;;;;;;;40.50;25.25;;;230.80;1996.80;;;;;;5057237;28;20029;-75
2021/01/01 16:55:04;;;;;;;39.00;23.42;;;230.80;1996.80;;;;;;5053341;28;20472;-79
2021/01/01 16:57:30;;;;;;;37.92;24.60;;;230.80;2022.40;;;;;;5049711;28;20053;-76
2021/01/01 16:59:56;;;;;;;37.25;24.00;;;230.80;2022.40;;;;;;5056468;28;20062;-75
2021/01/01 17:02:22;;;;;;;32.67;23.88;;;230.70;2022.40;;;;;;5059614;28;20364;-75
2021/01/01 17:04:48;;;;;;;36.22;23.40;;;230.70;2022.40;;;;;;5041864;28;20115;-76
2021/01/01 17:07:14;;;;;;;34.88;21.67;;;230.70;2048.00;;;;;;5059119;28;20124;-75
2021/01/01 17:09:39;;;;;;;32.45;22.65;;;230.70;2048.00;;;;;;5059543;28;20049;-75
2021/01/01 17:12:05;;;;;;;34.40;23.00;;;230.80;2022.40;;;;;;5058339;28;20048;-74
2021/01/01 17:14:31;;;;;;;35.35;24.70;;;230.80;2022.40;;;;;;5050293;28;20113;-73
2021/01/01 17:16:58;;;;;;;41.75;26.75;;;230.80;2022.40;;;;;;5039577;28;20057;-75
2021/01/01 17:19:24;;;;;;;40.45;26.95;;;230.80;2048.00;;;;;;5039457;28;20573;-74
2021/01/01 17:21:53;;;;;;;35.80;25.70;;;230.80;2022.40;;;;;;5039445;28;20386;-73
2021/01/01 17:24:19;;;;;;;35.08;25.52;;;230.70;2048.00;;;;;;5020964;28;20041;-74
2021/01/01 17:26:45;;;;;;;43.22;28.75;;;230.70;2048.00;;;;;;5038427;28;20018;-75
2021/01/01 17:29:10;;;;;;;41.05;27.80;;;230.70;2048.00;;;;;;5039240;28;20026;-72
2021/01/01 17:31:36;;;;;;;43.60;28.95;;;230.60;2048.00;;;;;;5039232;28;20315;-74
2021/01/01 17:34:06;;;;;;;53.38;30.05;;;230.60;2048.00;;;;;;5039422;28;20036;-81
2021/01/01 17:36:35;;;;;;;47.33;30.15;;;230.50;2048.00;;;;;;5039582;28;20025;-77
2021/01/01 17:39:04;;;;;;;57.58;32.60;;;230.50;2073.60;;;;;;5066820;28;20032;-78
2021/01/01 17:41:30;;;;;;;55.78;35.10;;;230.50;2073.60;;;;;;5059929;28;20463;-77
2021/01/01 17:43:56;;;;;;;47.72;30.02;;;230.50;2073.60;;;;;;5065104;28;20053;-74
2021/01/01 17:46:22;;;;;;;47.22;31.25;;;230.50;2073.60;;;;;;5051580;28;20055;-76
2021/01/01 17:48:49;;;;;;;47.50;31.52;;;230.50;2073.60;;;;;;5037738;28;20032;-78
2021/01/01 17:51:16;;;;;;;51.70;32.35;;;230.40;2073.60;;;;;;5037961;28;20026;-77
2021/01/01 17:53:42;;;;;;;51.88;32.28;;;230.40;2073.60;;;;;;5021254;28;20409;-79
2021/01/01 17:56:08;;;;;;;47.42;30.55;;;230.40;2073.60;;;;;;5036116;28;20052;-77
2021/01/01 17:58:34;;;;;;;47.92;30.20;;;230.40;2073.60;;;;;;5037834;28;20022;-76
2021/01/01 18:01:02;;;;;;;41.47;28.15;;;230.40;2073.60;;;;;;5038455;28;20330;-75
2021/01/01 18:03:29;;;;;;;42.53;29.35;;;205.70;2073.60;;;;;;5020305;28;20426;-76
2021/01/01 18:05:55;;;;;;;44.03;28.52;;;230.40;2073.60;;;;;;5038651;28;20025;-77
2021/01/01 18:08:22;;;;;;;43.17;28.05;;;230.40;2073.60;;;;;;5025423;28;20564;-74
2021/01/01 18:10:48;;;;;;;46.20;29.95;;;205.70;2073.60;;;;;;5067493;28;20024;-77
2021/01/01 18:13:14;;;;;;;46.55;29.05;;;205.60;2073.60;;;;;;5076745;28;20437;-76
2021/01/01 18:15:46;;;;;;;40.75;28.30;;;205.60;2073.60;;;;;;5078392;28;20035;-76
2021/01/01 18:18:12;;;;;;;38.42;25.00;;;205.60;2073.60;;;;;;5078135;28;20028;-77
2021/01/01 18:20:38;;;;;;;43.20;27.35;;;205.60;2073.60;;;;;;5078111;28;20138;-76
2021/01/01 18:23:18;;;;;;;36.58;24.30;;;205.50;2073.60;;;;;;5076493;28;20103;-76
2021/01/01 18:25:44;;;;;;;39.63;25.60;;;205.60;2073.60;;;;;;5077101;28;20021;-78
2021/01/01 18:28:14;;;;;;;36.75;25.20;;;205.60;2073.60;;;;;;5076315;28;20024;-76
2021/01/01 18:30:43;;;;;;;38.25;26.05;;;205.60;2073.60;;;;;;5058210;28;20037;-76
2021/01/01 18:33:13;;;;;;;43.67;29.00;;;205.50;2073.60;;;;;;5039970;28;20074;-75
2021/01/01 18:35:44;;;;;;;44.10;26.65;;;205.50;2073.60;;;;;;5058030;28;20021;-75
2021/01/01 18:38:34;;;;;;;42.95;25.77;;;205.50;2073.60;;;;;;5058066;28;20028;-75
2021/01/01 18:40:59;;;;;;;43.45;26.73;;;205.50;2073.60;;;;;;5057948;28;20032;-76
2021/01/01 18:43:36;;;;;;;40.92;23.80;;;205.40;2073.60;;;;;;5057664;28;20029;-75
2021/01/01 18:46:04;;;;;;;37.85;23.83;;;205.40;2073.60;;;;;;5040242;28;20120;-75
2021/01/01 18:48:33;;;;;;;34.40;22.35;;;205.40;2073.60;;;;;;5057837;28;20426;-75
2021/01/01 18:50:59;;;;;;;36.53;24.95;;;205.30;2073.60;;;;;;5058002;28;20032;-75
2021/01/01 18:53:28;;;;;;;40.63;26.25;;;205.40;2073.60;;;;;;5057712;28;20029;-76
2021/01/01 18:55:55;;;;;;;41.28;25.95;;;205.40;2073.60;;;;;;5057839;28;20128;-76
2021/01/01 18:58:29;;;;;;;36.50;23.55;;;205.40;2073.60;;;;;;5039855;28;20032;-76
2021/01/01 19:00:56;;;;;;;37.35;23.63;;;205.40;2073.60;;;;;;5057579;28;20036;-75
2021/01/01 19:03:51;;;;;;;42.50;25.38;;;205.30;2073.60;;;;;;5057308;28;20287;-75
2021/01/01 19:06:31;;;;;;;38.03;24.95;;;205.30;2073.60;;;;;;4973062;28;20043;-75
2021/01/01 19:08:59;;;;;;;37.15;24.23;;;205.30;2073.60;;;;;;4976857;28;20062;-75
2021/01/01 19:11:33;;;;;;;41.65;26.13;;;205.30;2073.60;;;;;;4976267;28;20034;-75
2021/01/01 19:13:59;;;;;;;40.70;26.58;;;205.30;2073.60;;;;;;4976570;28;20170;-76
2021/01/01 19:16:28;;;;;;;38.28;23.83;;;205.30;2073.60;;;;;;4976790;28;20175;-75
2021/01/01 19:19:01;;;;;;;38.30;23.73;;;205.20;2073.60;;;;;;4976693;28;20035;-75
2021/01/01 19:21:42;;;;;;;37.05;23.67;;;205.30;2073.60;;;;;;5073948;28;20787;-75
2021/01/01 19:24:18;;;;;;;38.13;24.33;;;205.30;2073.60;;;;;;5073592;28;20055;-75
2021/01/01 19:26:52;;;;;;;35.67;23.33;;;205.30;2073.60;;;;;;5073770;28;20452;-77
2021/01/01 19:29:27;;;;;;;36.30;23.15;;;205.20;2073.60;;;;;;5073596;28;20039;-75
2021/01/01 19:31:54;;;;;;;34.35;21.80;;;205.20;2073.60;;;;;;5072670;28;20103;-75
2021/01/01 19:34:41;;;;;;;33.15;22.27;;;205.20;2073.60;;;;;;5073483;28;20053;-75
2021/01/01 19:37:22;;;;;;;36.42;23.08;;;205.20;2048.00;;;;;;5073654;28;20302;-75
2021/01/01 19:40:06;;;;;;;38.05;22.55;;;205.20;2073.60;;;;;;5072377;28;20029;-75
2021/01/01 19:43:13;;;;;;;36.58;23.95;;;205.20;2073.60;;;;;;5073598;28;20024;-75
2021/01/01 19:46:13;;;;;;;38.45;23.42;;;205.20;2073.60;;;;;;5051478;28;20359;-75
2021/01/01 19:49:33;;;;;;;40.92;24.52;;;205.10;2073.60;;;;;;5051422;28;20021;-76
2021/01/01 19:52:05;;;;;;;41.60;24.27;;;205.00;2073.60;;;;;;4972829;28;20130;-76
2021/01/01 19:54:45;;;;;;;38.53;24.55;;;205.10;2073.60;;;;;;4972894;28;20082;-76
2021/01/01 19:57:35;;;;;;;37.15;23.98;;;205.10;2073.60;;;;;;4972701;28;20425;-76
2021/01/01 20:00:21;;;;;;;44.28;25.88;;;205.00;2073.60;;;;;;4972551;28;20035;-76
2021/01/01 20:03:07;;;;;;;41.00;25.00;;;205.10;2048.00;;;;;;4972457;28;20047;-76
2021/01/01 20:05:40;;;;;;;40.78;25.35;;;205.00;2073.60;;;;;;4972544;28;20372;-76
2021/01/01 20:08:16;;;;;;;34.08;22.85;;;205.20;2048.00;;;;;;4972544;28;20105;-75
2021/01/01 20:10:42;;;;;;;36.78;22.73;;;205.20;2048.00;;;;;;4972219;28;20103;-76
2021/01/01 20:13:08;;;;;;;36.42;22.17;;;205.20;2048.00;;;;;;4972226;28;20038;-76
2021/01/01 20:15:34;;;;;;;37.03;21.40;;;205.20;2048.00;;;;;;4972462;28;20038;-76
2021/01/01 20:18:02;;;;;;;31.42;19.95;;;205.20;2048.00;;;;;;4972342;28;20042;-75
2021/01/01 20:20:30;;;;;;;31.77;21.73;;;205.20;2048.00;;;;;;4971660;28;20429;-75
2021/01/01 20:22:56;;;;;;;27.95;20.40;;;205.20;2048.00;;;;;;4996235;28;20038;-75
2021/01/01 20:25:24;;;;;;;32.67;21.05;;;205.20;2048.00;;;;;;5031873;28;20115;-75
2021/01/01 20:27:52;;;;;;;34.63;22.20;;;205.20;2048.00;;;;;;5052791;28;20051;-76
2021/01/01 20:30:28;;;;;;;35.20;21.45;;;205.20;2048.00;;;;;;5052674;28;20029;-75
2021/01/01 20:33:00;;;;;;;32.97;21.80;;;205.20;2048.00;;;;;;5039437;28;20334;-76
2021/01/01 20:35:46;;;;;;;34.20;21.17;;;205.20;2022.40;;;;;;5038911;28;20033;-76
2021/01/01 20:38:33;;;;;;;31.73;21.00;;;205.10;2048.00;;;;;;5039409;28;20029;-75
2021/01/01 20:41:46;;;;;;;33.30;22.40;;;205.10;2048.00;;;;;;5039102;28;20033;-75
2021/01/01 20:44:17;;;;;;;38.35;23.65;;;205.00;2048.00;;;;;;5038944;28;20056;-75
2021/01/01 20:55:35;;;;;;;33.53;21.05;;;204.90;2048.00;;;;;;5038456;28;20033;-75
2021/01/01 20:58:07;;;;;;;41.80;21.45;;;205.00;2048.00;;;;;;5050908;28;20470;-75
2021/01/01 21:00:36;;;;;;;37.95;22.92;;;205.00;2048.00;;;;;;5038681;28;20026;-75
2021/01/01 21:03:05;;;;;;;38.83;22.88;;;205.00;2048.00;;;;;;5038890;28;20029;-75